首页
METAR-TAF:

METAR-TAF

机场 :

谢列梅捷沃国际机场

莫斯科舍列梅季耶夫, 俄罗斯

纬度: 55-58N, 经度: 037-25E, 海拔: 190米

当前天气观测

该预报发布于41分钟前的04:00 UTC
风速6节,风向西南
温度 -1°C
湿度 93%
气压 1020 hPa
能见度10公里或以上
1500米以下无云,无积雨云

METAR: UUEE 210400Z 22003MPS CAVOK M01/M02 Q1020 R24L/CLRD62 R24R/CLRD62 NOSIG

时间: 07:41 (04:41 UTC)

预报

该预报发布于2小时和51分钟前的01:50 UTC
预报有效从21日的 03点(UTC)到 22日的 03点(UTC)
风速10节,风向南转西南
能见度10公里或以上
散云层高于1600英尺
几率 40% :
短暂存在
从 21日的 03点(UTC)到 21日的 06点(UTC)
能見度: 0300
少量云层高于200英尺
冻雾

TAF: UUEE 210150Z 2103/2203 21005MPS 9999 SCT016 TX07/2112Z TNM02/2106Z PROB40 TEMPO 2103/2106 0300 FZFG FEW002

超过4000个机场的气象观测和天气预报(METAR&TAF报告)。

可查询的气象台以黄色和红色小点在地图上表示。

将鼠标移到小点上方,可查看气象台名称。

然后点击查看天气观测和预报。

如需切换地图:点击带黑十字的绿色按钮放大地图;点击带横线的绿色按钮缩小地图;或者点击绿色箭头查看邻近地区的地图。


METAR-TAF: